Terminal Aerodrome Forecast
Issued by NWS

Home | Current Version | Previous Version | Text Only | Print | Product List | Glossary On
Versions: 1 2 3 4 5 6 7 8 9 10 11 12 13 14 15 16 17 18 19 20
000
FTPA31 PHFO 211311 AAA
TAFHMK
TAF AMD
PHMK 211311Z 2113/2212 04008G16KT P6SM BKN035
     FM211400 08010KT 4SM SHRA SCT015 BKN025 OVC035
     FM212000 04012G20KT P6SM VCSH SCT020 BKN035
     FM220600 04010KT P6SM VCSH SCT020 BKN050=

USA.gov is the U.S. government's official web portal to all federal, state and local government web resources and services.